ADDS METAR Data INFO
IDs: Format: Raw Decoded Include TAF

Data at: 2250 UTC 16 Jan 2018

PAMB 162156Z AUTO 29008KT 10SM OVC110 01/M03 A2925 RMK AO2 SLP912 T00111033 FZRANO $
PAMB 162056Z AUTO 28007KT 10SM BKN120 01/M03 A2926 RMK AO2 SLP914 T00061028 58019 FZRANO $
PAMB 161956Z AUTO 30007KT 10SM CLR 01/M02 A2928 RMK AO2 SLP922 T00061022 FZRANO $
PAMB 161756Z AUTO 29004KT 10SM CLR 01/M02 A2932 RMK AO2 SLP933 T00111017 10011 21006 56017 FZRANO $
PAMB 161656Z AUTO 33006KT 10SM CLR 01/M01 A2932 RMK AO2 SLP936 T00111011 FZRANO $
PAMB 161556Z AUTO 35008KT 10SM CLR 01/M01 A2935 RMK AO2 SLP944 T00061011 FZRANO $
PAMB 161456Z AUTO 02008KT 10SM CLR 01/M01 A2936 RMK AO2 SLPNO T00061011 56019 FZRANO $
PAMB 161356Z AUTO 02009KT 10SM CLR 00/M01 A2938 RMK AO2 SLPNO T00001006 FZRANO $
PAMB 161256Z AUTO 36007KT 10SM CLR 00/M01 A2940 RMK AO2 SLPNO T00001006 FZRANO $
PAMB 161156Z AUTO 02003KT 10SM CLR M01/M01 A2942 RMK AO2 SLPNO 7//// T10061011 10011 21006 58013 FZRANO $
PAMB 161115Z AUTO 03004KT 10SM SCT019 M01/M01 A2944 RMK AO2 FZRANO $
PAMB 161056Z AUTO 02005KT 10SM BKN019 00/M01 A2944 RMK AO2 SLPNO T00001006 FZRANO $
PAMB 161026Z AUTO 01006KT 10SM SCT019 BKN026 OVC047 00/M01 A2945 RMK AO2 FZRANO $
PAMB 160956Z AUTO 02006KT 10SM FEW012 00/M01 A2945 RMK AO2 SLPNO T00001006 FZRANO $
PAMB 160916Z AUTO 01005KT 10SM OVC010 00/M01 A2946 RMK AO2 FZRANO $
PAMB 160856Z AUTO 02006KT 10SM OVC008 00/M01 A2946 RMK AO2 SLPNO T00001006 400170000 57001 FZRANO $
PAMB 160816Z AUTO 03006KT 10SM BKN008 OVC055 01/00 A2946 RMK AO2 FZRANO $
PAMB 160756Z AUTO 04007KT 10SM SCT006 OVC055 01/00 A2946 RMK AO2 SLPNO T00060000 FZRANO $
PAMB 160746Z AUTO 03008KT 10SM SCT006 OVC055 01/00 A2946 RMK AO2 FZRANO $
PAMB 160656Z AUTO 03005KT 10SM OVC006 01/00 A2946 RMK AO2 SLPNO T00060000 FZRANO $
PAMB 160604Z AUTO 05007KT 10SM BKN006 BKN043 OVC050 01/01 A2946 RMK AO2 FZRANO $
PAMB 160556Z AUTO 05006KT 10SM SCT006 BKN043 OVC050 01/01 A2946 RMK AO2 SLPNO 6//// T00110006 FZRANO $
PAMB 160529Z AUTO 05007KT 10SM SCT006 OVC055 01/01 A2946 RMK AO2 FZRANO $
PAMB 160456Z AUTO 07004KT 10SM SCT038 OVC055 01/01 A2945 RMK AO2 SLPNO T00110006 FZRANO $
PAMB 160356Z AUTO 12007KT 10SM OVC060 02/01 A2945 RMK AO2 SLPNO T00170006 FZRANO $
PAMB 152156Z AUTO 14007KT 10SM BKN036 OVC050 01/00 A2940 RMK AO2 RAB17E28 SLP961 P0000 T00110000 FZRANO $
PAMB 152056Z AUTO 13009KT 10SM SCT031 OVC050 01/00 A2939 RMK AO2 SLP958 60000 T00110000 53025 FZRANO $
PAMB 151956Z AUTO 13008KT 10SM OVC055 01/00 A2936 RMK AO2 SLP949 T00110000 FZRANO $
PAMB 151856Z AUTO 13007KT 10SM OVC044 01/00 A2934 RMK AO2 RAB12E28 SLP941 P0000 T00110000 FZRANO $
PAMB 151756Z AUTO 14007KT 10SM BKN035 OVC050 01/00 A2931 RMK AO2 SLP933 60003 T00060000 10017 20006 53024 FZRANO $
PAMB 151656Z AUTO 13006KT 10SM OVC060 01/00 A2929 RMK AO2 SLP924 T00110000 FZRANO $
PAMB 151556Z AUTO 15007KT 10SM OVC060 01/00 A2927 RMK AO2 RAE09 SLP917 P0000 T00110000 FZRANO $
PAMB 151456Z AUTO 14010KT 7SM -RA FEW019 BKN035 OVC043 01/00 A2924 RMK AO2 RAB41 SLP909 P0000 60003 T00110000 53019 FZRANO $
PAMB 151356Z AUTO 15009KT 10SM OVC034 01/01 A2922 RMK AO2 SLP902 T00110006 FZRANO $
PAMB 151256Z AUTO 15008KT 10SM BKN041 OVC055 01/01 A2920 RMK AO2 RAE02B21E45UPB02E21 SLP894 P0003 T00110006 FZRANO $
PAMB 151241Z AUTO 14007KT 10SM -RA SCT024 BKN047 OVC055 01/01 A2920 RMK AO2 RAE02B21UPB02E21 P0003 FZRANO $
PAMB 151156Z AUTO 15009KT 6SM -RA BR BKN020 OVC024 02/01 A2919 RMK AO2 RAE05B38UPB08E34 SLP889 P0001 60001 70004 T00170011 10022 20011 53021 FZRANO $
PAMB 151056Z AUTO 15010KT 9SM -RA OVC026 02/01 A2916 RMK AO2 UPB50E53RAB53 SLP880 P0000 T00170011 FZRANO $